createdAt,value
2022-09-13T00:01:32.777Z,11.11
2022-09-13T00:04:04.352Z,11.08
2022-09-13T00:06:33.517Z,11.15
2022-09-13T00:09:02.756Z,11.09
2022-09-13T00:11:32.905Z,11.15
2022-09-13T00:14:02.022Z,11.06
2022-09-13T00:16:32.004Z,11.19
2022-09-13T00:19:02.734Z,11.12
2022-09-13T00:21:32.038Z,11.01
2022-09-13T00:24:01.110Z,10.84
2022-09-13T00:26:31.355Z,10.77
2022-09-13T00:29:01.146Z,10.68
2022-09-13T00:31:30.672Z,10.78
2022-09-13T00:34:00.808Z,10.74
2022-09-13T00:36:32.343Z,10.68
2022-09-13T00:39:01.726Z,10.75
2022-09-13T00:41:30.841Z,10.62
2022-09-13T00:44:02.708Z,10.74
2022-09-13T00:46:38.740Z,10.65
2022-09-13T00:49:16.236Z,10.65
2022-09-13T00:51:51.488Z,10.59
2022-09-13T00:54:23.930Z,10.69
2022-09-13T00:56:57.421Z,10.71
2022-09-13T00:59:34.113Z,10.76
2022-09-13T01:02:04.617Z,10.55
2022-09-13T01:04:36.819Z,10.48
2022-09-13T01:07:10.963Z,10.53
2022-09-13T01:09:45.565Z,10.43
2022-09-13T01:12:26.541Z,10.27
2022-09-13T01:15:00.717Z,10.26
2022-09-13T01:17:31.354Z,10.31
2022-09-13T01:20:01.746Z,10.21
2022-09-13T01:23:23.699Z,10.10
2022-09-13T01:26:52.763Z,10.28
2022-09-13T01:29:51.501Z,10.35
2022-09-13T01:32:26.924Z,10.29
2022-09-13T01:35:05.634Z,10.33
2022-09-13T01:37:52.155Z,10.33
2022-09-13T01:40:44.253Z,10.33
2022-09-13T01:43:32.552Z,10.28
2022-09-13T01:46:07.598Z,10.26
2022-09-13T01:48:56.525Z,10.07
2022-09-13T01:51:34.556Z,10.17
2022-09-13T01:54:16.718Z,10.17
2022-09-13T01:56:57.189Z,10.17
2022-09-13T01:59:40.082Z,10.17
2022-09-13T02:02:18.281Z,10.21
2022-09-13T02:04:54.917Z,10.06
2022-09-13T02:07:30.493Z,9.93
2022-09-13T02:10:08.549Z,9.86
2022-09-13T02:12:42.078Z,9.88
2022-09-13T02:15:17.697Z,9.89
2022-09-13T02:17:53.367Z,9.74
2022-09-13T02:20:30.167Z,9.72
2022-09-13T02:23:03.573Z,9.85
2022-09-13T02:25:37.312Z,9.74
2022-09-13T02:28:10.992Z,9.74
2022-09-13T02:30:45.879Z,9.71
2022-09-13T02:33:19.636Z,9.70
2022-09-13T02:35:54.881Z,9.70
2022-09-13T02:38:30.593Z,9.66
2022-09-13T02:41:07.081Z,9.58
2022-09-13T02:43:41.923Z,9.75
2022-09-13T02:46:31.224Z,9.74
2022-09-13T02:49:13.245Z,9.54
2022-09-13T02:51:53.633Z,9.38
2022-09-13T02:54:31.798Z,9.34
2022-09-13T02:57:07.593Z,9.40
2022-09-13T02:59:36.847Z,9.59
2022-09-13T03:02:09.958Z,9.50
2022-09-13T03:04:41.164Z,9.46
2022-09-13T03:07:14.663Z,9.58
2022-09-13T03:09:50.350Z,9.57
2022-09-13T03:12:50.862Z,9.42
2022-09-13T03:15:33.197Z,9.62
2022-09-13T03:18:18.358Z,9.56
2022-09-13T03:21:02.369Z,9.34
2022-09-13T03:23:55.955Z,9.24
2022-09-13T03:26:36.712Z,9.24
2022-09-13T03:29:29.286Z,9.11
2022-09-13T03:32:11.118Z,9.17
2022-09-13T03:34:50.440Z,9.14
2022-09-13T03:37:32.691Z,9.08
2022-09-13T03:40:10.823Z,9.05
2022-09-13T03:42:46.915Z,9.05
2022-09-13T03:45:19.038Z,9.14
2022-09-13T03:47:53.349Z,9.28
2022-09-13T03:50:25.258Z,9.26
2022-09-13T03:52:59.873Z,9.11
2022-09-13T03:55:31.415Z,9.05
2022-09-13T03:58:01.274Z,9.18
2022-09-13T04:00:30.794Z,9.10
2022-09-13T04:02:59.818Z,9.04
2022-09-13T04:05:28.909Z,9.05
2022-09-13T04:07:57.977Z,9.11
2022-09-13T04:10:27.245Z,9.15
2022-09-13T04:12:57.908Z,9.10
2022-09-13T04:15:32.385Z,9.08
2022-09-13T04:18:02.294Z,9.06
2022-09-13T04:20:32.661Z,8.99
2022-09-13T04:23:08.795Z,8.93
2022-09-13T04:25:41.678Z,8.90
2022-09-13T04:28:12.307Z,8.91
2022-09-13T04:30:45.947Z,8.99
2022-09-13T04:33:19.677Z,9.19
2022-09-13T04:35:49.191Z,9.08
2022-09-13T04:38:18.298Z,9.19
2022-09-13T04:40:54.895Z,9.06
2022-09-13T04:43:25.748Z,9.02
2022-09-13T04:45:54.911Z,9.01
2022-09-13T04:48:24.006Z,9.09
2022-09-13T04:50:53.351Z,9.09
2022-09-13T04:53:22.501Z,9.24
2022-09-13T04:55:51.620Z,9.27
2022-09-13T04:58:22.257Z,9.13
2022-09-13T05:00:56.924Z,9.22
2022-09-13T05:03:26.086Z,9.27
2022-09-13T05:05:56.228Z,9.41
2022-09-13T05:08:25.268Z,9.50
2022-09-13T05:10:54.345Z,9.46
2022-09-13T05:13:23.453Z,9.56
2022-09-13T05:15:57.633Z,9.78
2022-09-13T05:18:27.945Z,9.71
2022-09-13T05:20:57.962Z,9.77
2022-09-13T05:23:29.291Z,9.81
2022-09-13T05:26:00.213Z,10.01
2022-09-13T05:28:31.403Z,10.15
2022-09-13T05:31:08.230Z,10.28
2022-09-13T05:33:39.640Z,10.45
2022-09-13T05:36:09.081Z,10.51
2022-09-13T05:38:38.266Z,10.58
2022-09-13T05:41:08.016Z,10.77
2022-09-13T05:43:38.392Z,10.88
2022-09-13T05:46:12.435Z,11.06
2022-09-13T05:48:42.528Z,11.17
2022-09-13T05:51:14.350Z,11.31
2022-09-13T05:53:45.921Z,11.35
2022-09-13T05:56:17.382Z,11.47
2022-09-13T05:58:48.492Z,11.63
2022-09-13T06:01:22.174Z,11.67
2022-09-13T06:03:52.892Z,11.75
2022-09-13T06:06:24.007Z,11.91
2022-09-13T06:08:54.799Z,11.95
2022-09-13T06:11:24.647Z,12.04
2022-09-13T06:13:54.371Z,12.18
2022-09-13T06:16:24.945Z,12.32
2022-09-13T06:18:54.070Z,12.41
2022-09-13T06:21:28.413Z,12.53
2022-09-13T06:23:58.330Z,12.56
2022-09-13T06:26:29.381Z,12.65
2022-09-13T06:29:03.625Z,12.79
2022-09-13T06:31:34.215Z,12.98
2022-09-13T06:34:03.789Z,13.09
2022-09-13T06:36:41.590Z,13.20
2022-09-13T06:39:11.095Z,13.40
2022-09-13T06:41:40.468Z,13.44
2022-09-13T06:44:10.590Z,13.60
2022-09-13T06:46:41.483Z,13.74
2022-09-13T06:49:11.844Z,13.91
2022-09-13T06:51:40.918Z,14.16
2022-09-13T06:54:10.022Z,14.28
2022-09-13T06:56:40.206Z,14.30
2022-09-13T06:59:11.667Z,14.41
2022-09-13T07:01:44.843Z,14.47
2022-09-13T07:04:16.909Z,14.57
2022-09-13T07:06:48.378Z,14.65
2022-09-13T07:09:21.312Z,14.90
2022-09-13T07:11:52.556Z,14.99
2022-09-13T07:14:24.770Z,15.22
2022-09-13T07:16:56.079Z,15.40
2022-09-13T07:19:27.721Z,15.55
2022-09-13T07:21:58.408Z,15.58
2022-09-13T07:24:29.861Z,15.60
2022-09-13T07:26:59.390Z,15.62
2022-09-13T07:29:28.917Z,15.69
2022-09-13T07:31:59.344Z,15.74
2022-09-13T07:34:28.599Z,15.83
2022-09-13T07:36:57.604Z,16.02
2022-09-13T07:39:27.153Z,16.10
2022-09-13T07:41:56.197Z,16.36
2022-09-13T07:44:25.675Z,16.61
2022-09-13T07:46:54.908Z,16.89
2022-09-13T07:49:25.656Z,17.12
2022-09-13T07:51:54.811Z,17.31
2022-09-13T07:54:23.874Z,17.54
2022-09-13T07:56:52.955Z,17.69
2022-09-13T07:59:23.428Z,17.80
2022-09-13T08:01:54.074Z,17.79
2022-09-13T08:04:26.780Z,17.80
2022-09-13T08:06:56.108Z,17.89
2022-09-13T08:09:26.529Z,17.92
2022-09-13T08:11:55.556Z,18.02
2022-09-13T08:14:25.284Z,18.10
2022-09-13T08:16:57.803Z,18.16
2022-09-13T08:19:28.584Z,18.44
2022-09-13T08:21:57.598Z,18.69
2022-09-13T08:24:26.821Z,18.78
2022-09-13T08:26:57.020Z,19.03
2022-09-13T08:29:26.497Z,19.12
2022-09-13T08:31:55.504Z,19.09
2022-09-13T08:34:24.756Z,18.77
2022-09-13T08:36:58.257Z,18.80
2022-09-13T08:39:29.259Z,19.05
2022-09-13T08:42:18.426Z,19.22
2022-09-13T08:44:49.453Z,19.31
2022-09-13T08:47:41.789Z,19.37
2022-09-13T08:50:18.862Z,19.33
2022-09-13T08:53:03.086Z,19.52
2022-09-13T08:56:04.542Z,19.75
2022-09-13T08:58:52.820Z,20.00
2022-09-13T09:01:44.746Z,20.02
2022-09-13T09:04:39.161Z,20.09
2022-09-13T09:07:16.090Z,20.21
2022-09-13T09:09:53.454Z,19.95
2022-09-13T09:12:29.483Z,19.81
2022-09-13T09:15:06.993Z,19.87
2022-09-13T09:17:50.399Z,20.06
2022-09-13T09:20:32.039Z,20.36
2022-09-13T09:23:07.335Z,20.57
2022-09-13T09:25:37.898Z,20.78
2022-09-13T09:28:14.648Z,20.95
2022-09-13T09:30:54.848Z,21.13
2022-09-13T09:33:51.138Z,21.40
2022-09-13T09:36:34.508Z,21.61
2022-09-13T09:39:05.814Z,21.60
2022-09-13T09:41:38.508Z,21.42
2022-09-13T09:44:19.840Z,21.52
2022-09-13T09:46:53.174Z,21.66
2022-09-13T09:49:50.944Z,21.27
2022-09-13T09:52:28.373Z,21.46
2022-09-13T09:55:00.609Z,21.58
2022-09-13T09:57:53.688Z,21.71
2022-09-13T10:00:26.089Z,21.63
2022-09-13T10:02:59.785Z,21.57
2022-09-13T10:05:30.405Z,21.77
2022-09-13T10:08:03.973Z,21.37
2022-09-13T10:10:42.713Z,21.55
2022-09-13T10:13:19.926Z,22.03
2022-09-13T10:15:58.218Z,22.45
2022-09-13T10:18:45.428Z,22.85
2022-09-13T10:21:26.408Z,23.17
2022-09-13T10:24:22.652Z,23.15
2022-09-13T10:26:52.105Z,22.72
2022-09-13T10:29:21.240Z,22.34
2022-09-13T10:31:53.780Z,22.38
2022-09-13T10:34:28.448Z,22.51
2022-09-13T10:37:01.371Z,22.84
2022-09-13T10:39:37.008Z,23.10
2022-09-13T10:42:09.589Z,23.36
2022-09-13T10:44:42.962Z,23.52
2022-09-13T10:47:19.572Z,23.68
2022-09-13T10:49:55.695Z,23.80
2022-09-13T10:52:32.616Z,24.10
2022-09-13T10:55:34.169Z,24.19
2022-09-13T10:58:21.455Z,24.67
2022-09-13T11:01:42.199Z,25.04
2022-09-13T11:04:46.519Z,25.51
2022-09-13T11:07:58.930Z,26.21
2022-09-13T11:10:36.516Z,26.15
2022-09-13T11:13:23.266Z,26.08
2022-09-13T11:16:05.062Z,26.12
2022-09-13T11:19:09.771Z,26.09
2022-09-13T11:21:55.521Z,26.16
2022-09-13T11:25:04.678Z,26.41
2022-09-13T11:27:46.209Z,26.05
2022-09-13T11:30:19.608Z,25.88
2022-09-13T11:33:24.177Z,25.94
2022-09-13T11:36:32.563Z,26.85
2022-09-13T11:39:14.638Z,26.57
2022-09-13T11:41:54.921Z,26.38
2022-09-13T11:45:03.053Z,25.57
2022-09-13T11:47:48.617Z,25.87
2022-09-13T11:50:30.953Z,26.26
2022-09-13T11:53:27.050Z,26.43
2022-09-13T11:56:03.557Z,26.52
2022-09-13T11:58:43.958Z,27.13
2022-09-13T12:01:22.989Z,27.70
2022-09-13T12:04:01.096Z,27.84
2022-09-13T12:06:35.543Z,27.86
2022-09-13T12:09:13.867Z,28.14
2022-09-13T12:11:48.634Z,28.36
2022-09-13T12:14:22.773Z,28.49
2022-09-13T12:16:57.260Z,28.55
2022-09-13T12:19:35.090Z,28.24
2022-09-13T12:22:12.568Z,27.94
2022-09-13T12:24:46.979Z,28.16
2022-09-13T12:27:30.312Z,28.28
2022-09-13T12:30:08.415Z,28.37
2022-09-13T12:32:40.351Z,28.47
2022-09-13T12:35:17.819Z,28.35
2022-09-13T12:38:31.657Z,28.17
2022-09-13T12:41:36.956Z,27.80
2022-09-13T12:44:54.135Z,27.92
2022-09-13T12:47:58.756Z,28.30
2022-09-13T12:51:07.248Z,28.69
2022-09-13T12:54:15.971Z,29.18
2022-09-13T12:57:01.153Z,29.12
2022-09-13T12:59:51.966Z,28.85
2022-09-13T13:02:31.165Z,28.92
2022-09-13T13:05:05.733Z,28.99
2022-09-13T13:07:38.224Z,29.09
2022-09-13T13:10:23.122Z,29.15
2022-09-13T13:12:52.500Z,28.83
2022-09-13T13:16:01.291Z,28.88
2022-09-13T13:18:44.333Z,28.80
2022-09-13T13:21:40.601Z,28.83
2022-09-13T13:24:47.511Z,28.75
2022-09-13T13:27:48.606Z,28.15
2022-09-13T13:30:52.892Z,28.21
2022-09-13T13:33:27.208Z,28.07
2022-09-13T13:35:56.557Z,27.76
2022-09-13T13:38:51.796Z,27.15
2022-09-13T13:41:55.395Z,26.52
2022-09-13T13:45:28.276Z,25.98
2022-09-13T13:48:16.289Z,25.73
2022-09-13T13:51:25.775Z,25.59
2022-09-13T13:54:05.720Z,25.33
2022-09-13T13:56:48.937Z,25.12
2022-09-13T13:59:28.178Z,24.79
2022-09-13T14:02:01.846Z,24.63
2022-09-13T14:05:10.090Z,24.73
2022-09-13T14:08:03.818Z,24.93
2022-09-13T14:10:46.562Z,25.03
2022-09-13T14:13:37.448Z,25.21
2022-09-13T14:16:17.521Z,25.55
2022-09-13T14:19:24.211Z,26.12
2022-09-13T14:22:22.788Z,27.75
2022-09-13T14:24:54.193Z,28.08
2022-09-13T14:27:30.627Z,28.54
2022-09-13T14:30:03.373Z,30.83
2022-09-13T14:32:45.811Z,34.57
2022-09-13T14:35:27.725Z,35.92
2022-09-13T14:37:57.476Z,34.65
2022-09-13T14:40:28.816Z,32.76
2022-09-13T14:42:59.493Z,30.40
2022-09-13T14:45:35.689Z,29.37
2022-09-13T14:48:10.816Z,28.60
2022-09-13T14:50:47.170Z,27.82
2022-09-13T14:53:19.889Z,27.49
2022-09-13T14:55:55.175Z,27.71
2022-09-13T14:58:29.810Z,28.73
2022-09-13T15:01:02.046Z,30.99
2022-09-13T15:03:31.648Z,31.63
2022-09-13T15:06:03.460Z,33.64
2022-09-13T15:08:47.818Z,38.20
2022-09-13T15:11:29.395Z,41.42
2022-09-13T15:14:25.755Z,43.62
2022-09-13T15:17:00.796Z,44.47
2022-09-13T15:19:36.465Z,43.84
2022-09-13T15:22:21.990Z,42.19
2022-09-13T15:24:54.904Z,37.60
2022-09-13T15:27:28.497Z,36.00
2022-09-13T15:30:03.010Z,32.38
2022-09-13T15:32:35.901Z,31.61
2022-09-13T15:35:05.414Z,32.23
2022-09-13T15:37:38.433Z,30.97
2022-09-13T15:40:17.714Z,29.88
2022-09-13T15:42:49.455Z,28.60
2022-09-13T15:45:22.381Z,27.43
2022-09-13T15:47:53.741Z,26.72
2022-09-13T15:50:29.198Z,26.20
2022-09-13T15:53:00.078Z,25.74
2022-09-13T15:55:29.994Z,25.32
2022-09-13T15:57:59.065Z,25.02
2022-09-13T16:00:29.787Z,24.77
2022-09-13T16:03:00.085Z,24.52
2022-09-13T16:05:29.303Z,24.35
2022-09-13T16:07:59.352Z,24.26
2022-09-13T16:10:31.550Z,24.15
2022-09-13T16:13:00.625Z,24.07
2022-09-13T16:15:31.634Z,24.41
2022-09-13T16:18:00.698Z,27.58
2022-09-13T16:20:30.198Z,30.87
2022-09-13T16:22:59.465Z,32.13
2022-09-13T16:25:28.548Z,30.42
2022-09-13T16:27:58.394Z,28.77
2022-09-13T16:30:30.560Z,27.45
2022-09-13T16:33:01.687Z,28.28
2022-09-13T16:35:33.072Z,27.89
2022-09-13T16:38:02.292Z,26.75
2022-09-13T16:40:31.638Z,25.70
2022-09-13T16:43:06.046Z,24.87
2022-09-13T16:45:35.862Z,24.19
2022-09-13T16:48:06.340Z,23.63
2022-09-13T16:50:36.107Z,23.16
2022-09-13T16:53:05.177Z,22.74
2022-09-13T16:55:34.417Z,22.43
2022-09-13T16:58:03.575Z,22.14
2022-09-13T17:00:33.013Z,21.99
2022-09-13T17:03:02.423Z,21.93
2022-09-13T17:05:33.075Z,21.76
2022-09-13T17:08:02.517Z,21.43
2022-09-13T17:10:31.921Z,21.11
2022-09-13T17:13:01.084Z,20.82
2022-09-13T17:15:30.760Z,20.69
2022-09-13T17:18:00.025Z,20.72
2022-09-13T17:20:29.228Z,20.69
2022-09-13T17:23:00.479Z,20.66
2022-09-13T17:25:29.724Z,20.58
2022-09-13T17:27:59.242Z,20.44
2022-09-13T17:30:28.555Z,20.36
2022-09-13T17:33:00.014Z,20.41
2022-09-13T17:35:30.230Z,20.37
2022-09-13T17:38:01.775Z,20.41
2022-09-13T17:40:32.965Z,20.20
2022-09-13T17:43:02.743Z,19.99
2022-09-13T17:45:31.812Z,19.92
2022-09-13T17:48:00.852Z,19.90
2022-09-13T17:50:30.101Z,19.89
2022-09-13T17:53:00.726Z,19.98
2022-09-13T17:55:29.946Z,20.05
2022-09-13T17:57:59.093Z,19.90
2022-09-13T18:00:28.913Z,19.82
2022-09-13T18:02:58.251Z,19.67
2022-09-13T18:05:27.690Z,19.51
2022-09-13T18:07:57.405Z,19.60
2022-09-13T18:10:49.214Z,19.61
2022-09-13T18:13:17.473Z,19.57
2022-09-13T18:15:46.579Z,19.46
2022-09-13T18:18:15.720Z,19.60
2022-09-13T18:20:47.519Z,19.51
2022-09-13T18:23:16.729Z,19.31
2022-09-13T18:26:02.607Z,19.30
2022-09-13T18:28:34.459Z,19.26
2022-09-13T18:31:07.118Z,19.08
2022-09-13T18:33:36.851Z,19.00
2022-09-13T18:36:10.008Z,19.05
2022-09-13T18:38:41.953Z,19.01
2022-09-13T18:41:14.940Z,18.74
2022-09-13T18:43:48.845Z,18.70
2022-09-13T18:46:23.829Z,18.66
2022-09-13T18:48:54.736Z,18.56
2022-09-13T18:51:27.251Z,18.62
2022-09-13T18:53:57.109Z,18.48
2022-09-13T18:56:28.843Z,18.50
2022-09-13T18:59:00.377Z,18.67
2022-09-13T19:01:32.833Z,18.61
2022-09-13T19:04:07.500Z,18.58
2022-09-13T19:06:45.678Z,18.57
2022-09-13T19:09:16.385Z,18.58
2022-09-13T19:11:49.655Z,18.59
2022-09-13T19:14:21.788Z,18.55
2022-09-13T19:16:52.348Z,18.56
2022-09-13T19:19:25.463Z,18.40
2022-09-13T19:21:58.192Z,18.36
2022-09-13T19:24:27.632Z,18.42
2022-09-13T19:26:58.338Z,18.26
2022-09-13T19:29:27.773Z,18.24
2022-09-13T19:31:57.433Z,18.28
2022-09-13T19:34:27.050Z,18.31
2022-09-13T19:37:00.420Z,18.45
2022-09-13T19:39:30.758Z,18.53
2022-09-13T19:42:02.406Z,18.47
2022-09-13T19:44:31.649Z,18.40
2022-09-13T19:49:56.756Z,18.41
2022-09-13T19:52:26.914Z,18.46
2022-09-13T19:54:58.989Z,18.40
2022-09-13T19:57:29.588Z,18.27
2022-09-13T19:59:58.788Z,18.38
2022-09-13T20:02:27.939Z,18.18
2022-09-13T20:04:57.018Z,18.07
2022-09-13T20:07:26.126Z,17.98
2022-09-13T20:09:55.151Z,18.03
2022-09-13T20:12:24.221Z,17.97
2022-09-13T20:14:54.796Z,17.85
2022-09-13T20:17:25.623Z,17.74
2022-09-13T20:19:55.039Z,17.89
2022-09-13T20:22:25.616Z,17.86
2022-09-13T20:24:54.841Z,17.75
2022-09-13T20:27:26.849Z,17.75
2022-09-13T20:30:00.981Z,17.67
2022-09-13T20:32:30.056Z,17.71
2022-09-13T20:34:59.323Z,17.69
2022-09-13T20:37:28.494Z,17.67
2022-09-13T20:39:57.534Z,17.83
2022-09-13T20:42:26.712Z,17.88
2022-09-13T20:44:55.812Z,17.75
2022-09-13T20:47:26.352Z,17.60
2022-09-13T20:49:55.527Z,17.52
2022-09-13T20:52:24.814Z,17.46
2022-09-13T20:54:53.847Z,17.49
2022-09-13T20:57:22.985Z,17.42
2022-09-13T20:59:52.701Z,17.50
2022-09-13T21:02:22.324Z,17.37
2022-09-13T21:04:52.796Z,17.26
2022-09-13T21:07:39.297Z,17.24
2022-09-13T21:10:09.625Z,17.22
2022-09-13T21:12:38.932Z,17.21
2022-09-13T21:15:09.399Z,17.22
2022-09-13T21:17:38.565Z,17.19
2022-09-13T21:20:10.187Z,17.15
2022-09-13T21:22:39.504Z,17.13
2022-09-13T21:25:09.936Z,17.19
2022-09-13T21:27:38.952Z,17.07
2022-09-13T21:30:09.218Z,17.08
2022-09-13T21:32:38.302Z,17.29
2022-09-13T21:35:10.393Z,17.26
2022-09-13T21:37:39.436Z,17.21
2022-09-13T21:40:10.251Z,17.16
2022-09-13T21:42:39.389Z,17.21
2022-09-13T21:45:10.220Z,17.12
2022-09-13T21:47:39.373Z,17.12
2022-09-13T21:50:11.195Z,16.97
2022-09-13T21:52:40.650Z,17.03
2022-09-13T21:55:10.496Z,16.82
2022-09-13T21:57:39.557Z,16.72
2022-09-13T22:00:12.723Z,16.60
2022-09-13T22:02:43.780Z,16.57
2022-09-13T22:05:14.785Z,16.57
2022-09-13T22:07:43.903Z,16.58
2022-09-13T22:10:13.081Z,16.64
2022-09-13T22:12:42.130Z,16.63
2022-09-13T22:15:12.317Z,16.75
2022-09-13T22:17:41.481Z,16.59
2022-09-13T22:20:11.325Z,16.57
2022-09-13T22:22:41.799Z,16.75
2022-09-13T22:25:11.255Z,16.81
2022-09-13T22:27:40.373Z,16.75
2022-09-13T22:30:10.977Z,16.81
2022-09-13T22:32:40.190Z,16.82
2022-09-13T22:35:10.781Z,16.83
2022-09-13T22:37:41.213Z,16.70
2022-09-13T22:40:12.189Z,16.67
2022-09-13T22:42:41.303Z,16.65
2022-09-13T22:45:11.298Z,16.59
2022-09-13T22:47:40.298Z,16.56
2022-09-13T22:50:10.443Z,16.59
2022-09-13T22:52:39.490Z,16.62
2022-09-13T22:55:10.646Z,16.65
2022-09-13T22:57:39.668Z,16.65
2022-09-13T23:00:11.605Z,16.65
2022-09-13T23:02:45.169Z,16.57
2022-09-13T23:05:17.042Z,16.48
2022-09-13T23:07:46.106Z,16.31
2022-09-13T23:10:16.773Z,16.34
2022-09-13T23:12:46.340Z,16.34
2022-09-13T23:15:15.528Z,16.36
2022-09-13T23:17:44.617Z,16.27
2022-09-13T23:20:13.820Z,16.52
2022-09-13T23:22:42.832Z,16.53
2022-09-13T23:25:11.901Z,16.42
2022-09-13T23:27:42.305Z,16.38
2022-09-13T23:30:12.793Z,16.36
2022-09-13T23:32:41.920Z,16.41
2022-09-13T23:35:12.085Z,16.47
2022-09-13T23:37:41.225Z,16.37
2022-09-13T23:40:11.419Z,16.32
2022-09-13T23:42:41.968Z,16.24
2022-09-13T23:45:12.825Z,16.22
2022-09-13T23:47:41.895Z,16.10
2022-09-13T23:50:11.876Z,16.12
2022-09-13T23:52:41.065Z,16.14
2022-09-13T23:55:14.284Z,16.11
2022-09-13T23:57:44.829Z,16.12
